Time;durP1;ratioP1;P1;durP2;ratioP2;P2;SDS_P1;SDS_P2;PMS_P1;PMS_P2;Temp;Humidity;BMP_temperature;BMP_pressure;BME280_temperature;BME280_humidity;BME280_pressure;Samples;Min_cycle;Max_cycle;Signal;HPM_P1;HPM_P2
2023/06/14 00:01:25;;;;;;;5.95;2.78;;;;;;;;;;5056541;28;20017;-60
2023/06/14 00:03:52;;;;;;;3.47;2.67;;;;;;;;;;5056789;28;20033;-60
2023/06/14 00:06:18;;;;;;;4.13;3.13;;;;;;;;;;5056272;28;20032;-60
2023/06/14 00:08:44;;;;;;;5.28;3.30;;;;;;;;;;5056012;28;20375;-60
2023/06/14 00:11:10;;;;;;;3.42;2.75;;;;;;;;;;5056675;28;20025;-60
2023/06/14 00:13:36;;;;;;;3.70;2.58;;;;;;;;;;5056106;28;20045;-60
2023/06/14 00:16:03;;;;;;;3.40;2.50;;;;;;;;;;5056262;28;20025;-60
2023/06/14 00:18:29;;;;;;;3.72;2.95;;;;;;;;;;5055966;28;20180;-60
2023/06/14 00:20:56;;;;;;;5.22;2.85;;;;;;;;;;5055858;28;20025;-60
2023/06/14 00:23:22;;;;;;;3.72;2.33;;;;;;;;;;5055562;28;20029;-60
2023/06/14 00:25:48;;;;;;;3.92;2.80;;;;;;;;;;5056412;28;20348;-60
2023/06/14 00:28:14;;;;;;;4.15;2.95;;;;;;;;;;5055950;28;20074;-60
2023/06/14 00:30:40;;;;;;;3.78;3.03;;;;;;;;;;5056039;28;20025;-60
2023/06/14 00:33:06;;;;;;;3.28;2.65;;;;;;;;;;5054385;28;20021;-60
2023/06/14 00:35:32;;;;;;;4.75;2.63;;;;;;;;;;5055706;28;20025;-60
2023/06/14 00:37:59;;;;;;;3.85;2.38;;;;;;;;;;5056513;28;20432;-60
2023/06/14 00:40:25;;;;;;;4.22;3.08;;;;;;;;;;5056265;28;20032;-60
2023/06/14 00:42:51;;;;;;;8.65;2.88;;;;;;;;;;5055840;28;20185;-60
2023/06/14 00:45:17;;;;;;;3.50;2.38;;;;;;;;;;5055764;28;20033;-60
2023/06/14 00:47:43;;;;;;;3.97;2.83;;;;;;;;;;5055261;28;20471;-60
2023/06/14 00:50:11;;;;;;;3.55;2.90;;;;;;;;;;5055495;28;20056;-60
2023/06/14 00:52:37;;;;;;;5.05;2.83;;;;;;;;;;5055869;28;20029;-60
2023/06/14 00:55:03;;;;;;;4.35;2.65;;;;;;;;;;5055752;28;20072;-60
2023/06/14 00:57:29;;;;;;;3.28;2.53;;;;;;;;;;5055187;28;20110;-60
2023/06/14 00:59:56;;;;;;;3.85;2.85;;;;;;;;;;5055190;28;20025;-60
2023/06/14 01:02:22;;;;;;;3.72;2.75;;;;;;;;;;5055689;28;20394;-60
2023/06/14 01:04:49;;;;;;;4.25;2.80;;;;;;;;;;5055100;28;20359;-60
2023/06/14 01:07:17;;;;;;;3.60;2.97;;;;;;;;;;5055654;28;20029;-60
2023/06/14 01:10:11;;;;;;;8.13;3.28;;;;;;;;;;5055276;28;20045;-60
2023/06/14 01:12:55;;;;;;;3.10;2.25;;;;;;;;;;5055439;28;20059;-60
2023/06/14 01:15:21;;;;;;;5.00;3.80;;;;;;;;;;5055990;28;20123;-60
2023/06/14 01:17:51;;;;;;;4.13;2.83;;;;;;;;;;5054885;28;20517;-60
2023/06/14 01:20:17;;;;;;;3.50;2.95;;;;;;;;;;5055103;28;20052;-60
2023/06/14 01:23:01;;;;;;;4.78;2.97;;;;;;;;;;5054893;28;20060;-60
2023/06/14 01:25:28;;;;;;;4.20;2.75;;;;;;;;;;5054993;28;20025;-60
2023/06/14 01:27:56;;;;;;;3.72;3.30;;;;;;;;;;5055148;28;20075;-60
2023/06/14 01:30:25;;;;;;;5.15;3.25;;;;;;;;;;5054680;28;20367;-60
2023/06/14 01:32:51;;;;;;;3.85;3.08;;;;;;;;;;5054714;28;20021;-60
2023/06/14 01:35:17;;;;;;;4.97;3.17;;;;;;;;;;5055250;28;20348;-60
2023/06/14 01:37:43;;;;;;;3.70;3.00;;;;;;;;;;5054827;28;20028;-60
2023/06/14 01:40:10;;;;;;;4.38;2.90;;;;;;;;;;5054951;28;20429;-60
2023/06/14 01:42:37;;;;;;;9.30;3.17;;;;;;;;;;5054491;28;20356;-60
2023/06/14 01:45:03;;;;;;;5.00;3.58;;;;;;;;;;5054235;28;20029;-60
2023/06/14 01:47:30;;;;;;;3.85;3.28;;;;;;;;;;5054967;28;20032;-60
2023/06/14 01:49:56;;;;;;;3.42;2.83;;;;;;;;;;5054682;28;20025;-60
2023/06/14 01:52:24;;;;;;;4.05;3.17;;;;;;;;;;5054829;28;20375;-60
2023/06/14 01:54:50;;;;;;;4.57;3.05;;;;;;;;;;5054631;28;20040;-60
2023/06/14 01:57:16;;;;;;;3.70;3.00;;;;;;;;;;5054221;28;20033;-60
2023/06/14 01:59:42;;;;;;;4.93;3.28;;;;;;;;;;5054146;28;20475;-60
2023/06/14 02:02:08;;;;;;;4.18;2.75;;;;;;;;;;5054210;28;20028;-60
2023/06/14 02:04:34;;;;;;;6.43;2.95;;;;;;;;;;5054625;28;20024;-60
2023/06/14 02:07:00;;;;;;;4.28;3.03;;;;;;;;;;5053998;28;20021;-60
2023/06/14 02:09:26;;;;;;;3.70;3.10;;;;;;;;;;5054464;28;20029;-60
2023/06/14 02:11:52;;;;;;;3.28;2.65;;;;;;;;;;5053943;28;20021;-60
2023/06/14 02:14:18;;;;;;;3.45;2.70;;;;;;;;;;5054016;28;20147;-60
2023/06/14 02:16:49;;;;;;;3.75;2.90;;;;;;;;;;5053814;28;20108;-60
2023/06/14 02:19:16;;;;;;;5.20;3.28;;;;;;;;;;5054371;28;20085;-60
2023/06/14 02:21:42;;;;;;;3.65;3.05;;;;;;;;;;5054210;28;20033;-60
2023/06/14 02:24:08;;;;;;;3.72;3.15;;;;;;;;;;5053697;28;20375;-60
2023/06/14 02:26:34;;;;;;;6.65;3.03;;;;;;;;;;5054277;28;20044;-60
2023/06/14 02:29:00;;;;;;;3.42;2.80;;;;;;;;;;5053703;28;20020;-60
2023/06/14 02:31:27;;;;;;;4.68;3.00;;;;;;;;;;5053680;28;20061;-60
2023/06/14 02:33:53;;;;;;;3.75;3.08;;;;;;;;;;5053573;28;20028;-60
2023/06/14 02:36:19;;;;;;;4.22;3.28;;;;;;;;;;5053883;28;20040;-60
2023/06/14 02:38:45;;;;;;;3.33;2.92;;;;;;;;;;5054030;28;20029;-60
2023/06/14 02:41:11;;;;;;;4.35;2.80;;;;;;;;;;5053504;28;20067;-60
2023/06/14 02:43:37;;;;;;;4.63;3.58;;;;;;;;;;5053507;28;20029;-60
2023/06/14 02:46:03;;;;;;;5.25;3.65;;;;;;;;;;5054109;28;20025;-60
2023/06/14 02:48:29;;;;;;;3.67;3.22;;;;;;;;;;5053943;28;20463;-60
2023/06/14 02:50:56;;;;;;;4.38;3.35;;;;;;;;;;5053403;28;20025;-60
2023/06/14 02:53:22;;;;;;;5.18;2.88;;;;;;;;;;5054159;28;20025;-60
2023/06/14 02:55:48;;;;;;;4.10;3.05;;;;;;;;;;5054910;28;20043;-59
2023/06/14 02:58:15;;;;;;;3.83;2.70;;;;;;;;;;5057515;28;20025;-60
2023/06/14 03:00:42;;;;;;;5.60;3.33;;;;;;;;;;5057876;28;20055;-60
2023/06/14 03:03:13;;;;;;;5.72;3.10;;;;;;;;;;5057558;28;20024;-59
2023/06/14 03:05:45;;;;;;;3.97;2.90;;;;;;;;;;5057990;28;20355;-60
2023/06/14 03:08:16;;;;;;;4.95;3.35;;;;;;;;;;5058247;28;20029;-60
2023/06/14 03:10:43;;;;;;;6.25;3.10;;;;;;;;;;5057910;28;20055;-60
2023/06/14 03:13:10;;;;;;;4.25;2.75;;;;;;;;;;5057695;28;20021;-59
2023/06/14 03:15:36;;;;;;;5.07;3.45;;;;;;;;;;5057029;28;20021;-60
2023/06/14 03:18:03;;;;;;;4.70;3.25;;;;;;;;;;5057521;28;20104;-60
2023/06/14 03:20:32;;;;;;;7.35;3.53;;;;;;;;;;5056403;28;20053;-60
2023/06/14 03:22:58;;;;;;;3.97;2.90;;;;;;;;;;5057150;28;20071;-60
2023/06/14 03:25:25;;;;;;;4.15;3.08;;;;;;;;;;5057219;28;20048;-60
2023/06/14 03:27:51;;;;;;;3.70;3.00;;;;;;;;;;5057736;28;20037;-60
2023/06/14 03:30:17;;;;;;;3.60;2.58;;;;;;;;;;5057134;28;20025;-60
2023/06/14 03:32:43;;;;;;;4.18;2.60;;;;;;;;;;5057231;28;20025;-59
2023/06/14 03:35:16;;;;;;;3.90;2.92;;;;;;;;;;5056838;28;20029;-59
2023/06/14 03:37:42;;;;;;;6.07;3.92;;;;;;;;;;5057650;28;20036;-60
2023/06/14 03:40:08;;;;;;;4.38;3.42;;;;;;;;;;5056692;28;20423;-59
2023/06/14 03:42:34;;;;;;;3.97;2.47;;;;;;;;;;5056766;28;20359;-59
2023/06/14 03:45:00;;;;;;;4.40;2.72;;;;;;;;;;5056796;28;20021;-59
2023/06/14 03:47:27;;;;;;;7.95;3.47;;;;;;;;;;5057398;28;20091;-60
2023/06/14 03:49:53;;;;;;;5.28;3.33;;;;;;;;;;5056552;28;20017;-60
2023/06/14 03:52:19;;;;;;;4.90;3.10;;;;;;;;;;5057140;28;20028;-59
2023/06/14 03:54:46;;;;;;;3.95;2.60;;;;;;;;;;5056655;28;20024;-60
2023/06/14 03:57:12;;;;;;;3.35;2.92;;;;;;;;;;5057194;28;20127;-59
2023/06/14 03:59:38;;;;;;;3.53;2.70;;;;;;;;;;5056743;28;20454;-59
2023/06/14 04:02:04;;;;;;;5.18;3.67;;;;;;;;;;5056572;28;20060;-60
2023/06/14 04:04:30;;;;;;;4.95;3.35;;;;;;;;;;5056297;28;20045;-59
2023/06/14 04:06:58;;;;;;;3.47;2.53;;;;;;;;;;5056448;28;20344;-60
2023/06/14 04:09:24;;;;;;;4.28;2.92;;;;;;;;;;5056349;28;20028;-59
2023/06/14 04:11:51;;;;;;;4.20;2.60;;;;;;;;;;5056872;28;20070;-60
2023/06/14 04:14:18;;;;;;;4.43;3.15;;;;;;;;;;5056443;28;20071;-60
2023/06/14 04:16:44;;;;;;;4.50;3.08;;;;;;;;;;5056253;28;20021;-59
2023/06/14 04:19:10;;;;;;;3.80;3.33;;;;;;;;;;5056320;28;20029;-59
2023/06/14 04:21:36;;;;;;;3.95;2.88;;;;;;;;;;5056001;28;20052;-59
2023/06/14 04:24:02;;;;;;;5.05;3.15;;;;;;;;;;5057004;28;20032;-60
2023/06/14 04:26:29;;;;;;;3.63;2.45;;;;;;;;;;5056533;28;20037;-60
2023/06/14 04:28:56;;;;;;;4.22;3.05;;;;;;;;;;5056097;28;20039;-60
2023/06/14 04:31:24;;;;;;;5.35;2.90;;;;;;;;;;5056518;28;20029;-60
2023/06/14 04:33:52;;;;;;;4.72;3.45;;;;;;;;;;5056768;28;20021;-60
2023/06/14 04:36:19;;;;;;;5.07;2.95;;;;;;;;;;5056378;28;20488;-60
2023/06/14 04:38:46;;;;;;;4.75;3.15;;;;;;;;;;5056430;28;20363;-59
2023/06/14 04:41:12;;;;;;;4.72;3.22;;;;;;;;;;5056610;28;20053;-59
2023/06/14 04:43:38;;;;;;;3.42;3.05;;;;;;;;;;5056150;28;20411;-60
2023/06/14 04:46:05;;;;;;;3.42;2.88;;;;;;;;;;5056007;28;20074;-60
2023/06/14 04:48:32;;;;;;;2.92;2.42;;;;;;;;;;5055977;28;20025;-59
2023/06/14 04:50:58;;;;;;;6.03;3.58;;;;;;;;;;5056429;28;20031;-60
2023/06/14 04:53:24;;;;;;;4.07;3.00;;;;;;;;;;5055658;28;20099;-59
2023/06/14 04:55:50;;;;;;;5.07;3.33;;;;;;;;;;5055748;28;20472;-60
2023/06/14 04:58:16;;;;;;;7.18;3.60;;;;;;;;;;5055508;28;20056;-60
2023/06/14 05:00:43;;;;;;;5.60;3.10;;;;;;;;;;5055688;28;20478;-59
2023/06/14 05:03:09;;;;;;;3.45;3.10;;;;;;;;;;5056260;28;20116;-60
2023/06/14 05:05:35;;;;;;;4.63;3.95;;;;;;;;;;5055031;28;20056;-60
2023/06/14 05:08:01;;;;;;;6.55;3.70;;;;;;;;;;5055396;28;20040;-59
2023/06/14 05:10:26;;;;;;;4.25;3.53;;;;;;;;;;5054987;28;20021;-60
2023/06/14 05:12:52;;;;;;;6.82;3.58;;;;;;;;;;5055001;28;20053;-60
2023/06/14 05:15:19;;;;;;;5.05;3.38;;;;;;;;;;5056245;28;20055;-59
2023/06/14 05:17:53;;;;;;;3.20;2.85;;;;;;;;;;5055207;28;20064;-60
2023/06/14 05:20:19;;;;;;;3.75;3.25;;;;;;;;;;5054660;28;20104;-59
2023/06/14 05:22:44;;;;;;;9.00;3.15;;;;;;;;;;5055394;28;20025;-59
2023/06/14 05:25:10;;;;;;;3.80;3.15;;;;;;;;;;5055325;28;20032;-59
2023/06/14 05:27:37;;;;;;;4.57;3.53;;;;;;;;;;5055296;28;20029;-60
2023/06/14 05:30:03;;;;;;;5.45;3.60;;;;;;;;;;5054885;28;20037;-59
2023/06/14 05:32:30;;;;;;;4.38;2.97;;;;;;;;;;5054927;28;20028;-60
2023/06/14 05:34:56;;;;;;;9.35;3.47;;;;;;;;;;5054638;28;20043;-59
2023/06/14 05:37:22;;;;;;;5.00;3.47;;;;;;;;;;5054435;28;20541;-59
2023/06/14 05:39:48;;;;;;;4.78;3.85;;;;;;;;;;5055045;28;20078;-60
2023/06/14 05:42:14;;;;;;;3.97;3.42;;;;;;;;;;5055054;28;20056;-60
2023/06/14 05:44:40;;;;;;;3.63;3.22;;;;;;;;;;5054475;28;20021;-60
2023/06/14 05:47:06;;;;;;;5.55;3.15;;;;;;;;;;5054832;28;20083;-59
2023/06/14 05:49:32;;;;;;;4.28;3.10;;;;;;;;;;5054869;28;20037;-60
2023/06/14 05:51:58;;;;;;;4.13;3.40;;;;;;;;;;5054419;28;20024;-60
2023/06/14 05:54:24;;;;;;;4.25;3.20;;;;;;;;;;5054676;28;20028;-59
2023/06/14 05:56:50;;;;;;;3.92;3.15;;;;;;;;;;5054161;28;20029;-59
2023/06/14 05:59:16;;;;;;;3.83;3.42;;;;;;;;;;5054230;28;20035;-59
2023/06/14 06:01:42;;;;;;;4.25;3.35;;;;;;;;;;5054535;28;20017;-59
2023/06/14 06:04:08;;;;;;;3.65;3.22;;;;;;;;;;5054182;28;20032;-59
2023/06/14 06:06:35;;;;;;;5.63;3.20;;;;;;;;;;5054409;28;20033;-59
2023/06/14 06:09:02;;;;;;;3.65;2.90;;;;;;;;;;5054548;28;20455;-59
2023/06/14 06:11:27;;;;;;;4.55;3.45;;;;;;;;;;5054407;28;20028;-60
2023/06/14 06:13:53;;;;;;;4.85;3.17;;;;;;;;;;5054016;28;20123;-59
2023/06/14 06:16:19;;;;;;;5.97;3.85;;;;;;;;;;5054182;28;20036;-59
2023/06/14 06:18:45;;;;;;;5.20;3.05;;;;;;;;;;5054473;28;20024;-60
2023/06/14 06:21:11;;;;;;;3.40;2.75;;;;;;;;;;5054200;28;20021;-59
2023/06/14 06:23:37;;;;;;;4.80;3.80;;;;;;;;;;5053835;28;20467;-59
2023/06/14 06:26:04;;;;;;;5.38;3.03;;;;;;;;;;5054294;28;20457;-59
2023/06/14 06:28:30;;;;;;;5.72;3.50;;;;;;;;;;5053607;28;20025;-59
2023/06/14 06:30:56;;;;;;;3.33;3.03;;;;;;;;;;5052610;28;20485;-60
2023/06/14 06:33:22;;;;;;;9.20;3.00;;;;;;;;;;5053204;28;20028;-59
2023/06/14 06:35:47;;;;;;;8.90;3.45;;;;;;;;;;5054084;28;20053;-59
2023/06/14 06:38:13;;;;;;;5.45;3.83;;;;;;;;;;5053254;28;20033;-60
2023/06/14 06:40:39;;;;;;;6.65;3.63;;;;;;;;;;5052952;28;20035;-60
2023/06/14 06:43:05;;;;;;;3.42;2.88;;;;;;;;;;5053454;28;20104;-59
2023/06/14 06:45:31;;;;;;;3.75;2.88;;;;;;;;;;5053726;28;20135;-59
2023/06/14 06:47:57;;;;;;;3.42;2.80;;;;;;;;;;5053784;28;20066;-59
2023/06/14 06:50:24;;;;;;;3.97;3.40;;;;;;;;;;5053185;28;20025;-59
2023/06/14 06:52:50;;;;;;;4.30;2.88;;;;;;;;;;5053349;28;20025;-59
2023/06/14 06:55:18;;;;;;;4.95;3.83;;;;;;;;;;5053765;28;20017;-59
2023/06/14 06:57:44;;;;;;;5.30;3.40;;;;;;;;;;5053559;28;20536;-59
2023/06/14 07:00:10;;;;;;;3.92;2.88;;;;;;;;;;5053861;28;20059;-60
2023/06/14 07:02:36;;;;;;;3.60;3.20;;;;;;;;;;5053383;28;20352;-60
2023/06/14 07:05:03;;;;;;;3.58;3.05;;;;;;;;;;5053237;28;20394;-60
2023/06/14 07:07:29;;;;;;;4.22;3.50;;;;;;;;;;5052993;28;20490;-60
2023/06/14 07:09:57;;;;;;;4.50;3.00;;;;;;;;;;5053843;28;20025;-60
2023/06/14 07:12:23;;;;;;;5.22;2.83;;;;;;;;;;5053208;28;20017;-60
2023/06/14 07:14:49;;;;;;;4.55;3.17;;;;;;;;;;5053156;28;20122;-60
2023/06/14 07:17:15;;;;;;;3.97;3.10;;;;;;;;;;5053203;28;20029;-60
2023/06/14 07:19:41;;;;;;;3.92;3.40;;;;;;;;;;5053491;28;20033;-60
2023/06/14 07:22:07;;;;;;;3.47;3.00;;;;;;;;;;5053185;28;20371;-60
2023/06/14 07:24:34;;;;;;;9.38;4.00;;;;;;;;;;5052808;28;20383;-60
2023/06/14 07:27:01;;;;;;;4.00;3.17;;;;;;;;;;5053152;28;20189;-60
2023/06/14 07:29:27;;;;;;;5.45;3.75;;;;;;;;;;5052585;28;20041;-60
2023/06/14 07:31:53;;;;;;;3.78;3.38;;;;;;;;;;5053039;28;20029;-60
2023/06/14 07:34:19;;;;;;;5.25;3.75;;;;;;;;;;5053004;28;20024;-60
2023/06/14 07:36:45;;;;;;;4.93;3.88;;;;;;;;;;5053455;28;20434;-60
2023/06/14 07:39:11;;;;;;;6.45;3.15;;;;;;;;;;5053356;28;20053;-60
2023/06/14 07:41:37;;;;;;;3.97;3.30;;;;;;;;;;5053915;28;20074;-60
2023/06/14 07:44:03;;;;;;;3.78;3.10;;;;;;;;;;5057391;28;20032;-60
2023/06/14 07:46:29;;;;;;;4.68;3.10;;;;;;;;;;5056958;28;20052;-60
2023/06/14 07:48:55;;;;;;;3.78;3.30;;;;;;;;;;5057234;28;20036;-60
2023/06/14 07:51:22;;;;;;;4.07;3.22;;;;;;;;;;5056800;28;20025;-60
2023/06/14 07:53:49;;;;;;;4.13;3.58;;;;;;;;;;5057211;28;20021;-58
2023/06/14 07:56:15;;;;;;;3.42;3.13;;;;;;;;;;5056695;28;20025;-58
2023/06/14 07:58:41;;;;;;;4.13;3.30;;;;;;;;;;5057319;28;20053;-60
2023/06/14 08:01:07;;;;;;;4.93;3.20;;;;;;;;;;5056867;28;20057;-61
2023/06/14 08:03:34;;;;;;;3.97;3.50;;;;;;;;;;5056614;28;20040;-61
2023/06/14 08:06:00;;;;;;;5.28;3.70;;;;;;;;;;5057071;28;20025;-61
2023/06/14 08:08:26;;;;;;;5.03;4.00;;;;;;;;;;5056495;28;20013;-61
2023/06/14 08:10:53;;;;;;;6.15;4.05;;;;;;;;;;5056371;28;20048;-60
2023/06/14 08:13:18;;;;;;;5.60;3.97;;;;;;;;;;5056030;28;20116;-61
2023/06/14 08:15:44;;;;;;;4.95;3.60;;;;;;;;;;5056264;28;20134;-61
2023/06/14 08:18:10;;;;;;;5.45;3.83;;;;;;;;;;5056356;28;20025;-61
2023/06/14 08:20:37;;;;;;;5.85;3.70;;;;;;;;;;5056976;28;20025;-61
2023/06/14 08:23:04;;;;;;;7.18;3.95;;;;;;;;;;5056052;28;20027;-61
2023/06/14 08:25:30;;;;;;;6.57;3.97;;;;;;;;;;5056671;28;20044;-58
2023/06/14 08:27:56;;;;;;;6.88;3.55;;;;;;;;;;5055952;28;20074;-59
2023/06/14 08:30:22;;;;;;;4.30;3.53;;;;;;;;;;5055624;28;20021;-59
2023/06/14 08:32:48;;;;;;;4.75;3.90;;;;;;;;;;5056044;28;20064;-59
2023/06/14 08:35:15;;;;;;;4.93;3.20;;;;;;;;;;5055964;28;20052;-59
2023/06/14 08:37:42;;;;;;;6.53;3.20;;;;;;;;;;5056284;28;20521;-59
2023/06/14 08:40:20;;;;;;;6.25;3.63;;;;;;;;;;5056186;28;20074;-59
2023/06/14 08:42:48;;;;;;;4.25;3.58;;;;;;;;;;5055986;28;20352;-59
2023/06/14 08:45:14;;;;;;;11.05;3.78;;;;;;;;;;5055632;28;20021;-59
2023/06/14 08:47:41;;;;;;;5.68;4.00;;;;;;;;;;5055377;28;20064;-59
2023/06/14 08:50:08;;;;;;;10.27;3.70;;;;;;;;;;5055986;28;20025;-59
2023/06/14 08:52:40;;;;;;;5.07;3.25;;;;;;;;;;5055400;28;20032;-59
2023/06/14 08:55:06;;;;;;;7.38;4.03;;;;;;;;;;5055050;28;20071;-59
2023/06/14 08:57:33;;;;;;;5.05;3.53;;;;;;;;;;5055477;28;20490;-59
2023/06/14 09:00:04;;;;;;;4.93;3.60;;;;;;;;;;5055341;28;20033;-59
2023/06/14 09:02:30;;;;;;;4.28;3.58;;;;;;;;;;5056186;28;20028;-59
2023/06/14 09:04:59;;;;;;;4.60;3.33;;;;;;;;;;5055230;28;20174;-59
2023/06/14 09:07:25;;;;;;;6.65;3.20;;;;;;;;;;5055569;28;20025;-59
2023/06/14 09:10:05;;;;;;;4.85;3.72;;;;;;;;;;5055191;28;20051;-59
2023/06/14 09:12:31;;;;;;;4.18;3.78;;;;;;;;;;5055274;28;20489;-60
2023/06/14 09:14:57;;;;;;;8.25;3.30;;;;;;;;;;5055051;28;20045;-59
2023/06/14 09:17:23;;;;;;;6.43;3.75;;;;;;;;;;5055685;28;20505;-60
2023/06/14 09:19:49;;;;;;;4.93;4.20;;;;;;;;;;5054988;28;20509;-59
2023/06/14 09:22:17;;;;;;;4.28;2.95;;;;;;;;;;5055103;28;20021;-59
2023/06/14 09:24:43;;;;;;;8.88;4.07;;;;;;;;;;5055577;28;20071;-59
2023/06/14 09:27:10;;;;;;;4.93;3.60;;;;;;;;;;5055532;28;20035;-60
2023/06/14 09:29:36;;;;;;;4.75;3.67;;;;;;;;;;5055005;28;20047;-59
2023/06/14 09:32:02;;;;;;;4.90;3.72;;;;;;;;;;5055347;28;20490;-59
2023/06/14 09:34:28;;;;;;;5.82;3.75;;;;;;;;;;5055042;28;20021;-59
2023/06/14 09:36:54;;;;;;;7.00;3.47;;;;;;;;;;5054739;28;20036;-59
2023/06/14 09:39:20;;;;;;;4.32;3.33;;;;;;;;;;5055486;28;20057;-59
2023/06/14 09:41:46;;;;;;;4.88;4.13;;;;;;;;;;5054757;28;20017;-59
2023/06/14 09:44:12;;;;;;;4.15;3.13;;;;;;;;;;5054886;28;20021;-59
2023/06/14 09:46:39;;;;;;;4.95;3.33;;;;;;;;;;5055322;28;20036;-59
2023/06/14 09:49:06;;;;;;;4.68;3.75;;;;;;;;;;5055329;28;20082;-59
2023/06/14 09:51:32;;;;;;;6.00;3.38;;;;;;;;;;5054330;28;20057;-59
2023/06/14 09:54:00;;;;;;;4.82;3.40;;;;;;;;;;5054427;28;20067;-59
2023/06/14 09:56:30;;;;;;;5.00;3.75;;;;;;;;;;5054476;28;20120;-59
2023/06/14 09:58:57;;;;;;;4.80;3.20;;;;;;;;;;5054928;28;20379;-59
2023/06/14 10:01:27;;;;;;;4.60;3.10;;;;;;;;;;5054444;28;20108;-60
2023/06/14 10:04:01;;;;;;;4.72;3.35;;;;;;;;;;5054788;28;20403;-59
2023/06/14 10:06:27;;;;;;;4.03;2.60;;;;;;;;;;5054427;28;20032;-60
2023/06/14 10:08:55;;;;;;;4.50;3.40;;;;;;;;;;5053924;28;20075;-60
2023/06/14 10:11:21;;;;;;;3.72;2.85;;;;;;;;;;5054785;28;20413;-60
2023/06/14 10:13:47;;;;;;;5.50;3.20;;;;;;;;;;5054414;28;20129;-60
2023/06/14 10:16:17;;;;;;;4.43;3.50;;;;;;;;;;5054307;28;20029;-59
2023/06/14 10:18:48;;;;;;;4.18;3.78;;;;;;;;;;5054569;28;20040;-60
2023/06/14 10:21:33;;;;;;;4.57;3.22;;;;;;;;;;5054664;28;20021;-60
2023/06/14 10:24:01;;;;;;;4.03;3.30;;;;;;;;;;5054681;28;20025;-59
2023/06/14 10:26:27;;;;;;;4.18;3.30;;;;;;;;;;5054536;28;20032;-59
2023/06/14 10:29:22;;;;;;;4.40;3.42;;;;;;;;;;5053927;28;20021;-59
2023/06/14 10:31:55;;;;;;;5.65;3.15;;;;;;;;;;5049316;28;20029;-60
2023/06/14 10:34:25;;;;;;;6.97;2.88;;;;;;;;;;5054289;28;20021;-60
2023/06/14 10:37:02;;;;;;;3.10;2.38;;;;;;;;;;5053585;28;20483;-60
2023/06/14 10:39:28;;;;;;;3.63;3.00;;;;;;;;;;5054227;28;20087;-60
2023/06/14 10:41:55;;;;;;;4.15;2.97;;;;;;;;;;5053140;28;20052;-60
2023/06/14 10:44:21;;;;;;;5.15;3.60;;;;;;;;;;5053862;28;20029;-60
2023/06/14 10:46:47;;;;;;;3.88;3.28;;;;;;;;;;5053667;28;20058;-60
2023/06/14 10:49:18;;;;;;;5.47;3.40;;;;;;;;;;5053931;28;20021;-60
2023/06/14 10:51:49;;;;;;;4.15;3.17;;;;;;;;;;5053471;28;20025;-60
2023/06/14 10:54:21;;;;;;;4.05;3.20;;;;;;;;;;5053651;28;20119;-60
2023/06/14 10:56:48;;;;;;;5.45;3.10;;;;;;;;;;5052407;28;20535;-60
2023/06/14 10:59:14;;;;;;;10.00;3.22;;;;;;;;;;5053784;28;20131;-60
2023/06/14 11:01:59;;;;;;;7.47;3.08;;;;;;;;;;5053405;28;20032;-60
2023/06/14 11:04:34;;;;;;;3.72;2.95;;;;;;;;;;5053757;28;20021;-60
2023/06/14 11:07:18;;;;;;;3.38;2.95;;;;;;;;;;5053449;28;20036;-60
2023/06/14 11:10:07;;;;;;;3.95;3.20;;;;;;;;;;5053396;28;20021;-60
2023/06/14 11:12:35;;;;;;;4.03;3.10;;;;;;;;;;5050289;28;20041;-60
2023/06/14 11:15:01;;;;;;;3.95;2.95;;;;;;;;;;5053552;28;20061;-60
2023/06/14 11:17:27;;;;;;;5.00;3.47;;;;;;;;;;5055534;28;20029;-60
2023/06/14 11:20:16;;;;;;;4.28;3.15;;;;;;;;;;5057830;28;20056;-60
2023/06/14 11:22:45;;;;;;;6.53;3.00;;;;;;;;;;5057652;28;20025;-60
2023/06/14 11:25:14;;;;;;;3.53;2.88;;;;;;;;;;5057298;28;20021;-60
2023/06/14 11:27:43;;;;;;;3.92;2.88;;;;;;;;;;5057149;28;20040;-60
2023/06/14 11:30:09;;;;;;;9.75;3.25;;;;;;;;;;5057027;28;20029;-60
2023/06/14 11:32:36;;;;;;;3.47;2.97;;;;;;;;;;5057099;28;20102;-60
2023/06/14 11:35:02;;;;;;;5.00;2.90;;;;;;;;;;5056909;28;20059;-61
2023/06/14 11:37:28;;;;;;;3.17;2.50;;;;;;;;;;5056840;28;20063;-60
2023/06/14 11:39:58;;;;;;;4.28;3.13;;;;;;;;;;5057723;28;20025;-60
2023/06/14 11:42:27;;;;;;;3.67;3.03;;;;;;;;;;5057141;28;20127;-60
2023/06/14 11:44:54;;;;;;;4.07;3.20;;;;;;;;;;5056684;28;20140;-60
2023/06/14 11:47:20;;;;;;;4.55;3.42;;;;;;;;;;5057461;28;20064;-60
2023/06/14 11:49:47;;;;;;;3.65;2.85;;;;;;;;;;5057137;28;20413;-60
2023/06/14 11:52:13;;;;;;;5.05;3.10;;;;;;;;;;5056601;28;20486;-60
2023/06/14 11:54:40;;;;;;;4.10;3.42;;;;;;;;;;5056842;28;20028;-60
2023/06/14 11:57:07;;;;;;;5.25;3.13;;;;;;;;;;5056857;28;20064;-60
2023/06/14 11:59:38;;;;;;;4.32;3.15;;;;;;;;;;5055662;28;20029;-60
2023/06/14 12:02:04;;;;;;;4.38;3.45;;;;;;;;;;5057017;28;20356;-60
2023/06/14 12:04:31;;;;;;;4.85;3.58;;;;;;;;;;5057155;28;20031;-60
2023/06/14 12:06:57;;;;;;;5.70;3.13;;;;;;;;;;5057327;28;20112;-60
2023/06/14 12:09:25;;;;;;;4.90;3.28;;;;;;;;;;5056962;28;20059;-60
2023/06/14 12:11:51;;;;;;;3.72;3.28;;;;;;;;;;5056339;28;20471;-60
2023/06/14 12:14:17;;;;;;;3.75;2.70;;;;;;;;;;5056531;28;20045;-60
2023/06/14 12:16:43;;;;;;;3.92;3.05;;;;;;;;;;5056581;28;20108;-60
2023/06/14 12:19:13;;;;;;;4.70;3.58;;;;;;;;;;5056127;28;20033;-60
2023/06/14 12:21:43;;;;;;;5.18;2.97;;;;;;;;;;5056238;28;20465;-60
2023/06/14 12:24:11;;;;;;;3.60;2.83;;;;;;;;;;5056379;28;20555;-60
2023/06/14 12:26:41;;;;;;;6.78;3.17;;;;;;;;;;5056157;28;20558;-60
2023/06/14 12:29:07;;;;;;;4.28;2.90;;;;;;;;;;5054825;28;20021;-60
2023/06/14 12:31:33;;;;;;;3.80;3.08;;;;;;;;;;5056300;28;20025;-60
2023/06/14 12:33:59;;;;;;;4.07;3.05;;;;;;;;;;5055965;28;20485;-60
2023/06/14 12:36:26;;;;;;;5.57;2.97;;;;;;;;;;5056708;28;20039;-60
2023/06/14 12:38:55;;;;;;;4.13;3.20;;;;;;;;;;5056203;28;20025;-60
2023/06/14 12:41:22;;;;;;;4.80;2.45;;;;;;;;;;5056431;28;20458;-60
2023/06/14 12:43:48;;;;;;;4.53;3.30;;;;;;;;;;5056293;28;20115;-60
2023/06/14 12:46:14;;;;;;;4.18;2.95;;;;;;;;;;5056334;28;20068;-60
2023/06/14 12:48:40;;;;;;;3.42;3.13;;;;;;;;;;5056275;28;20543;-60
2023/06/14 12:51:06;;;;;;;5.05;3.00;;;;;;;;;;5055707;28;20111;-60
2023/06/14 12:53:32;;;;;;;4.45;2.50;;;;;;;;;;5055497;28;20096;-60
2023/06/14 12:55:58;;;;;;;3.63;2.78;;;;;;;;;;5055599;28;20434;-60
2023/06/14 12:58:24;;;;;;;3.35;2.83;;;;;;;;;;5055594;28;20095;-60
2023/06/14 13:00:50;;;;;;;5.35;3.47;;;;;;;;;;5055561;28;20110;-60
2023/06/14 13:03:16;;;;;;;3.40;2.80;;;;;;;;;;5055704;28;20024;-60
2023/06/14 13:05:42;;;;;;;3.22;2.65;;;;;;;;;;5055395;28;20112;-60
2023/06/14 13:08:08;;;;;;;7.93;3.00;;;;;;;;;;5055460;28;20025;-60
2023/06/14 13:10:35;;;;;;;5.85;3.20;;;;;;;;;;5056027;28;20028;-60
2023/06/14 13:13:01;;;;;;;4.65;3.17;;;;;;;;;;5055678;28;20056;-60
2023/06/14 13:15:27;;;;;;;3.90;3.17;;;;;;;;;;5055979;28;20463;-60
2023/06/14 13:17:53;;;;;;;3.28;2.70;;;;;;;;;;5055755;28;20029;-60
2023/06/14 13:20:19;;;;;;;3.55;2.80;;;;;;;;;;5055181;28;20482;-60
2023/06/14 13:22:45;;;;;;;4.45;3.38;;;;;;;;;;5054958;28;20024;-60
2023/06/14 13:25:11;;;;;;;7.07;3.35;;;;;;;;;;5055299;28;20029;-60
2023/06/14 13:27:37;;;;;;;3.47;2.67;;;;;;;;;;5055242;28;20452;-60
2023/06/14 13:30:05;;;;;;;3.42;2.65;;;;;;;;;;5054961;28;20028;-60
2023/06/14 13:32:31;;;;;;;3.85;2.55;;;;;;;;;;5055697;28;20107;-60
2023/06/14 13:34:57;;;;;;;3.80;2.78;;;;;;;;;;5055161;28;20047;-60
2023/06/14 13:37:23;;;;;;;4.07;2.90;;;;;;;;;;5055342;28;20040;-60
2023/06/14 13:39:49;;;;;;;8.88;3.50;;;;;;;;;;5054574;28;20406;-60
2023/06/14 13:42:15;;;;;;;3.42;3.08;;;;;;;;;;5055473;28;20151;-60
2023/06/14 13:44:41;;;;;;;5.50;3.35;;;;;;;;;;5054729;28;20052;-60
2023/06/14 13:47:07;;;;;;;3.60;3.13;;;;;;;;;;5055024;28;20060;-60
2023/06/14 13:49:35;;;;;;;4.85;3.10;;;;;;;;;;5054615;28;20040;-60
2023/06/14 13:52:01;;;;;;;12.90;3.63;;;;;;;;;;5054148;28;20505;-61
2023/06/14 13:54:27;;;;;;;4.45;3.05;;;;;;;;;;5055264;28;20029;-61
2023/06/14 13:56:53;;;;;;;4.57;2.80;;;;;;;;;;5055028;28;20025;-61
2023/06/14 13:59:19;;;;;;;3.80;3.03;;;;;;;;;;5054920;28;20143;-61
2023/06/14 14:01:45;;;;;;;4.88;3.03;;;;;;;;;;5054374;28;20021;-61
2023/06/14 14:04:11;;;;;;;4.63;2.53;;;;;;;;;;5054604;28;20035;-61
2023/06/14 14:06:37;;;;;;;4.38;3.30;;;;;;;;;;5054468;28;20383;-61
2023/06/14 14:09:03;;;;;;;3.90;2.97;;;;;;;;;;5054191;28;20032;-61
2023/06/14 14:11:31;;;;;;;8.27;3.60;;;;;;;;;;5054253;28;20032;-61
2023/06/14 14:13:57;;;;;;;8.73;3.05;;;;;;;;;;5054197;28;20053;-61
2023/06/14 14:16:23;;;;;;;3.70;3.10;;;;;;;;;;5053989;28;20120;-61
2023/06/14 14:18:51;;;;;;;9.10;3.22;;;;;;;;;;5054016;28;20139;-61
2023/06/14 14:21:17;;;;;;;3.47;2.30;;;;;;;;;;5054006;28;20107;-60
2023/06/14 14:23:43;;;;;;;4.63;2.97;;;;;;;;;;5053648;28;20025;-60
2023/06/14 14:26:09;;;;;;;4.32;3.05;;;;;;;;;;5053633;28;20422;-60
2023/06/14 14:28:35;;;;;;;4.53;3.05;;;;;;;;;;5054237;28;20063;-60
2023/06/14 14:31:02;;;;;;;5.85;3.75;;;;;;;;;;5053953;28;20024;-60
2023/06/14 14:33:28;;;;;;;4.32;3.17;;;;;;;;;;5054435;28;20045;-60
2023/06/14 14:35:54;;;;;;;3.42;2.72;;;;;;;;;;5054300;28;20060;-60
2023/06/14 14:38:21;;;;;;;3.50;2.83;;;;;;;;;;5053700;28;20375;-60
2023/06/14 14:40:47;;;;;;;4.75;3.10;;;;;;;;;;5053718;28;20071;-60
2023/06/14 14:43:13;;;;;;;5.32;2.95;;;;;;;;;;5054021;28;20053;-60